Terminal Aerodrome Forecast
Issued by NWS

Home | Current Version | Previous Version | Text Only | Print | Product List | Glossary On
Versions: 1 2 3 4 5 6 7 8 9 10 11 12 13 14 15 16 17 18
506
FTUS45 KRIW 172323
TAFCPR
TAF
KCPR 172323Z 1800/1824 23033G43KT P6SM FEW150
     FM180100 23025G35KT P6SM BKN200 WS015/24055KT
     FM180900 23015G25KT P6SM SCT100 BKN200 WS015/25045KT
     FM181500 23010G20KT P6SM BKN100
     FM181800 03012KT 1SM -SN OVC020
     FM182000 04010G20KT 1/2SM SN OVC006=

USA.gov is the U.S. government's official web portal to all federal, state and local government web resources and services.